Nearby METAR Reports

 

KSJC - San Jose, California, USA
Distance from station: NE 9mi, 14km
Updated: 08,04/2020 12:53am
Few Clouds
Few Clouds
 Wind from NNW
Wind: NNW 6 mph , 9 km/h
Temperature: 64°F , 18°C
Dew Point: 55°F , 13°C
Humidity: 73%
Barometer: 30.02 inHg , 1016.6 hPa
Clouds: Few Clouds
Visibility: 10 miles , 16 km
Cloud details: Few Clouds 1200 ft
2020/08/04 04:53 KSJC 040453Z 34005KT 10SM FEW012 18/13 A3002 RMK AO2 SLP166 T01830128
KNUQ - Moffett Nas/Mtn, California, USA
Distance from station: N 9mi, 14km
Updated: 08,03/2020 9:55am
NOT Current
Clear
Clear
 Wind from calm
Wind: Calm
Temperature: 63°F , 17°C
Dew Point: 57°F , 14°C
Humidity: 83%
Barometer: 30.02 inHg , 1016.6 hPa
Clouds: Clear
Visibility: 10 miles , 16 km
2020/08/03 13:55 KNUQ 031355Z AUTO 00000KT 10SM CLR 17/14 A3002 RMK AO2
KPAO - Palo Alto, California, USA
Distance from station: NNW 14mi, 23km
Updated: 08,03/2020 7:47pm
NOT Current
Clear
Clear
 Wind from WNW
Wind: WNW 14 mph , 22 km/h, Gust: 23 mph , 37 km/h
Temperature: 81°F , 27°C
Heat Index: 81°F , 27°C
Dew Point: 55°F , 13°C
Humidity: 42%
Barometer: 30.01 inHg , 1016.3 hPa
Clouds: Clear
Visibility: 10 miles , 16 km
2020/08/03 23:47 KPAO 032347Z 29012G20KT 10SM SKC 27/13 A3001
 
KRHV - San Jose/Reid, California, USA
Distance from station: ENE 12mi, 19km
Updated: 08,04/2020 12:47am
Clear
Clear
 Wind from NW
Wind: NW 8 mph , 13 km/h
Temperature: 68°F , 20°C
Dew Point: 55°F , 13°C
Humidity: 64%
Barometer: 30.02 inHg , 1016.6 hPa
Clouds: Clear
Visibility: 10 miles , 16 km
2020/08/04 04:47 KRHV 040447Z 32007KT 10SM SKC 20/13 A3002 RMK LAST
KOAK - Oakland, California, USA
Distance from station: NNW 31mi, 50km
Updated: 08,04/2020 12:53am
Overcast
Overcast
 Wind from WSW
Wind: WSW 14 mph , 22 km/h
Temperature: 63°F , 17°C
Dew Point: 57°F , 14°C
Humidity: 83%
Barometer: 30.01 inHg , 1016.3 hPa
Clouds: Overcast
Visibility: 10 miles , 16 km
Cloud details: Overcast 600 ft
2020/08/04 04:53 KOAK 040453Z 25012KT 10SM OVC006 17/14 A3001 RMK AO2 SLP163 T01720139
KSQL - San Carlos Airpo, California, USA
Distance from station: NW 21mi, 34km
Updated: 08,04/2020 1:15am
Clear
Clear
 Wind from W
Wind: W 10 mph , 17 km/h
Temperature: 63°F , 17°C
Dew Point: 57°F , 14°C
Humidity: 83%
Barometer: 30.03 inHg , 1016.9 hPa
Clouds: Clear
Visibility: 10 miles , 16 km
2020/08/04 05:15 KSQL 040515Z AUTO 27009KT 10SM CLR 17/14 A3003 RMK AO2
 
KSFO - San Francisco, California, USA
Distance from station: NW 30mi, 49km
Updated: 08,04/2020 12:56am
Overcast
Overcast
 Wind from W
Wind: W 17 mph , 28 km/h, Gust: 28 mph , 44 km/h
Temperature: 61°F , 16°C
Dew Point: 55°F , 13°C
Humidity: 83%
Barometer: 30.00 inHg , 1015.9 hPa
Clouds: Overcast
Visibility: 8 miles , 13 km
Cloud details: Few Clouds 400 ft
Mostly cloudy 600 ft
Overcast 800 ft
2020/08/04 04:56 KSFO 040456Z 27015G24KT 8SM FEW004 BKN006 OVC008 16/13 A3000 RMK AO2 SLP159 T01610133
KE16 - San Martin, California, USA
Distance from station: ESE 27mi, 43km
Updated: 08,04/2020 1:10am
Mostly cloudy
Mostly cloudy
 Wind from WNW
Wind: WNW 9 mph , 15 km/h
Temperature: 68°F , 20°C
Dew Point: 54°F , 12°C
Humidity: 60%
Barometer: 30.03 inHg , 1016.9 hPa
Clouds: Mostly cloudy
Visibility: 10 miles , 16 km
Cloud details: Mostly cloudy 3100 ft
2020/08/04 05:10 KE16 040510Z AUTO 30008KT 10SM BKN031 20/12 A3003 RMK AO2 PWINO PNO
KWVI - Watsonville, California, USA
Distance from station: SSE 27mi, 44km
Updated: 08,04/2020 12:53am
Clear
Clear
 Wind from ESE
Wind: ESE 6 mph , 9 km/h
Temperature: 59°F , 15°C
Dew Point: 55°F , 13°C
Humidity: 88%
Barometer: 30.04 inHg , 1017.3 hPa
Clouds: Clear
Visibility: 10 miles , 16 km
2020/08/04 04:53 KWVI 040453Z AUTO 12005KT 10SM CLR 15/13 A3004 RMK AO2 SLP171 T01500133
 
KHAF - Half Moon Bay, California, USA
Distance from station: WNW 31mi, 50km
Updated: 08,04/2020 1:15am
Mist, Overcast
Mist, Overcast
 Wind from NW
Wind: NW 12 mph , 19 km/h, Gust: 17 mph , 28 km/h
Temperature: 57°F , 14°C
Dew Point: 57°F , 14°C
Humidity: 100%
Barometer: 30.05 inHg , 1017.6 hPa
Summary: Mist
Clouds: Overcast
Visibility: 3/4 mile , 1.2 km
Cloud details: Overcast 300 ft
2020/08/04 05:15 KHAF 040515Z AUTO 31010G15KT 3/4SM BR OVC003 14/14 A3005 RMK AO2
KHWD - Hayward, California, USA
Distance from station: N 28mi, 44km
Updated: 08,04/2020 12:54am
Overcast
Overcast
 Wind from WSW
Wind: WSW 8 mph , 13 km/h
Temperature: 63°F , 17°C
Dew Point: 55°F , 13°C
Humidity: 77%
Barometer: 30.02 inHg , 1016.6 hPa
Clouds: Overcast
Visibility: 10 miles , 16 km
Cloud details: Overcast 700 ft
2020/08/04 04:54 KHWD 040454Z 24007KT 10SM OVC007 17/13 A3002 RMK AO2 SLP173 T01720133
KLVK - Livermore, California, USA
Distance from station: NNE 31mi, 51km
Updated: 08,04/2020 12:53am
Clear
Clear
 Wind from WSW
Wind: WSW 10 mph , 17 km/h
Temperature: 63°F , 17°C
Dew Point: 55°F , 13°C
Humidity: 77%
Barometer: 30.00 inHg , 1015.9 hPa
Clouds: Clear
Visibility: 10 miles , 16 km
2020/08/04 04:53 KLVK 040453Z 25009KT 10SM CLR 17/13 A3000 RMK AO2 SLP155 T01670133 $